Time;durP1;ratioP1;P1;durP2;ratioP2;P2;SDS_P1;SDS_P2;PMS_P1;PMS_P2;Temp;Humidity;BMP_temperature;BMP_pressure;BME280_temperature;BME280_humidity;BME280_pressure;Samples;Min_cycle;Max_cycle;Signal;HPM_P1;HPM_P2
2022/10/12 00:02:05;;;;;;;13.60;7.95;;;7.40;99.90;;;;;;4945472;29;20047;-68
2022/10/12 00:04:31;;;;;;;13.57;8.30;;;7.50;99.90;;;;;;4945729;29;20071;-69
2022/10/12 00:06:56;;;;;;;11.80;7.65;;;7.40;99.90;;;;;;4944966;29;20556;-69
2022/10/12 00:09:22;;;;;;;15.52;8.10;;;7.40;99.90;;;;;;4928224;29;20118;-69
2022/10/12 00:11:47;;;;;;;15.85;8.35;;;7.90;99.90;;;;;;4945833;29;20483;-68
2022/10/12 00:14:13;;;;;;;16.00;8.55;;;7.40;99.90;;;;;;4944314;29;20083;-67
2022/10/12 00:16:40;;;;;;;17.20;8.15;;;7.40;99.90;;;;;;4945738;29;20046;-69
2022/10/12 00:19:05;;;;;;;14.90;8.48;;;7.30;99.90;;;;;;4945082;29;20059;-68
2022/10/12 00:21:32;;;;;;;15.93;9.23;;;7.90;99.90;;;;;;4945762;29;20197;-68
2022/10/12 00:24:00;;;;;;;16.40;8.82;;;7.30;99.90;;;;;;4944794;29;20544;-68
2022/10/12 00:26:27;;;;;;;14.05;8.77;;;7.30;99.90;;;;;;4945667;29;20122;-69
2022/10/12 00:28:56;;;;;;;14.15;8.38;;;7.30;99.90;;;;;;4944344;29;20051;-69
2022/10/12 00:31:22;;;;;;;17.08;9.25;;;7.50;99.90;;;;;;4944286;29;20470;-69
2022/10/12 00:33:48;;;;;;;15.98;9.32;;;7.40;99.90;;;;;;4945508;29;20047;-69
2022/10/12 00:36:21;;;;;;;17.35;9.50;;;7.30;99.90;;;;;;4944953;29;20046;-69
2022/10/12 00:38:48;;;;;;;14.40;8.93;;;7.40;99.90;;;;;;4944822;29;20054;-70
2022/10/12 00:41:15;;;;;;;15.73;9.32;;;7.50;99.90;;;;;;4945193;29;20126;-69
2022/10/12 00:43:42;;;;;;;16.17;10.18;;;7.30;99.90;;;;;;4944084;29;20043;-69
2022/10/12 00:46:24;;;;;;;17.45;9.75;;;7.40;99.90;;;;;;4944832;29;20102;-69
2022/10/12 00:48:57;;;;;;;15.25;9.57;;;7.30;99.90;;;;;;4927698;29;20093;-68
2022/10/12 00:51:23;;;;;;;18.95;9.65;;;7.30;99.90;;;;;;4944857;29;20054;-69
2022/10/12 00:54:03;;;;;;;16.48;10.30;;;7.40;99.90;;;;;;4927220;29;20051;-69
2022/10/12 00:56:32;;;;;;;16.80;9.25;;;7.30;99.90;;;;;;4945718;29;20047;-69
2022/10/12 00:59:01;;;;;;;17.90;9.88;;;7.30;99.90;;;;;;4944340;29;20051;-69
2022/10/12 01:01:28;;;;;;;13.25;9.68;;;7.40;99.90;;;;;;4945017;29;20402;-69
2022/10/12 01:03:54;;;;;;;16.88;9.57;;;7.20;99.90;;;;;;4945170;29;20107;-69
2022/10/12 01:06:20;;;;;;;17.23;10.20;;;7.30;99.90;;;;;;4944548;29;20047;-69
2022/10/12 01:08:46;;;;;;;16.02;9.52;;;7.90;99.90;;;;;;4943904;28;20043;-68
2022/10/12 01:11:11;;;;;;;15.80;9.98;;;7.30;99.90;;;;;;4944856;29;20098;-69
2022/10/12 01:13:37;;;;;;;14.82;9.30;;;7.20;99.90;;;;;;4927281;29;20491;-68
2022/10/12 01:16:23;;;;;;;15.02;9.80;;;7.10;99.90;;;;;;4944580;29;20618;-69
2022/10/12 01:19:04;;;;;;;13.48;8.70;;;7.10;99.90;;;;;;4944625;28;20134;-67
2022/10/12 01:21:36;;;;;;;12.00;8.88;;;7.20;99.90;;;;;;4944137;29;20058;-69
2022/10/12 01:24:36;;;;;;;13.68;9.32;;;7.20;99.90;;;;;;4944414;29;20074;-68
2022/10/12 01:27:17;;;;;;;12.57;8.10;;;7.20;99.90;;;;;;4926954;29;20051;-68
2022/10/12 01:29:52;;;;;;;12.60;8.35;;;7.20;99.90;;;;;;4944212;29;20082;-68
2022/10/12 01:32:50;;;;;;;14.45;8.45;;;7.10;99.90;;;;;;4943565;29;20047;-68
2022/10/12 01:35:18;;;;;;;14.45;8.55;;;7.00;99.90;;;;;;4944898;29;20043;-69
2022/10/12 01:38:03;;;;;;;11.20;8.38;;;7.00;99.90;;;;;;4944897;29;20066;-68
2022/10/12 01:40:36;;;;;;;12.60;8.35;;;7.10;99.90;;;;;;4945529;29;20083;-68
2022/10/12 01:43:02;;;;;;;11.10;7.28;;;6.90;99.90;;;;;;4925949;29;20079;-68
2022/10/12 01:45:27;;;;;;;13.55;7.88;;;7.00;99.90;;;;;;4944947;29;20035;-67
2022/10/12 01:47:54;;;;;;;13.40;8.10;;;6.90;99.90;;;;;;4944576;29;20509;-68
2022/10/12 01:50:24;;;;;;;12.75;7.53;;;6.90;99.90;;;;;;4943783;29;20055;-69
2022/10/12 01:53:01;;;;;;;12.02;7.38;;;7.00;99.90;;;;;;4944266;29;20106;-69
2022/10/12 01:55:51;;;;;;;11.65;7.32;;;6.90;99.90;;;;;;4944667;28;20126;-69
2022/10/12 01:58:38;;;;;;;12.57;7.65;;;7.00;99.90;;;;;;4962885;28;20058;-68
2022/10/12 02:01:09;;;;;;;12.10;6.88;;;6.80;99.90;;;;;;4962743;28;20197;-68
2022/10/12 02:03:56;;;;;;;13.20;6.88;;;7.00;99.90;;;;;;4963724;28;20089;-67
2022/10/12 02:06:29;;;;;;;9.50;6.72;;;6.80;99.90;;;;;;4946115;28;20059;-69
2022/10/12 02:09:03;;;;;;;10.07;6.63;;;6.80;99.90;;;;;;4925720;29;20047;-69
2022/10/12 02:11:33;;;;;;;15.10;6.82;;;6.90;99.90;;;;;;5003966;23;20146;-69
2022/10/12 02:14:06;;;;;;;11.10;6.80;;;6.90;99.90;;;;;;4921624;29;20075;-68
2022/10/12 02:16:38;;;;;;;12.20;6.97;;;6.80;99.90;;;;;;4933836;29;20051;-69
2022/10/12 02:19:07;;;;;;;9.60;6.80;;;6.90;99.90;;;;;;4943798;29;20110;-68
2022/10/12 02:21:34;;;;;;;13.55;7.57;;;6.90;99.90;;;;;;4945240;28;20050;-69
2022/10/12 02:24:04;;;;;;;11.77;6.70;;;6.70;99.90;;;;;;4930218;29;20068;-68
2022/10/12 02:26:32;;;;;;;14.05;6.97;;;6.70;99.90;;;;;;4930297;29;20054;-69
2022/10/12 02:29:02;;;;;;;13.35;6.25;;;6.80;99.90;;;;;;4947438;29;20859;-68
2022/10/12 02:31:31;;;;;;;12.57;7.15;;;6.80;99.90;;;;;;4948091;29;20047;-69
2022/10/12 02:34:03;;;;;;;13.32;6.68;;;6.80;99.90;;;;;;4947774;29;20410;-69
2022/10/12 02:36:51;;;;;;;11.02;6.78;;;6.60;99.90;;;;;;4947156;29;20138;-68
2022/10/12 02:39:24;;;;;;;16.20;6.93;;;6.50;99.90;;;;;;4946838;29;20082;-69
2022/10/12 02:41:55;;;;;;;11.00;7.20;;;6.50;99.90;;;;;;4947321;29;20363;-68
2022/10/12 02:44:27;;;;;;;11.90;6.40;;;6.50;99.90;;;;;;4946627;29;20092;-68
2022/10/12 02:46:54;;;;;;;11.13;6.32;;;6.50;99.90;;;;;;4946552;29;20439;-69
2022/10/12 02:49:23;;;;;;;12.05;6.30;;;6.50;99.90;;;;;;4946958;29;20082;-69
2022/10/12 02:51:49;;;;;;;12.98;6.35;;;6.70;99.90;;;;;;4946700;29;20529;-69
2022/10/12 02:54:15;;;;;;;12.55;6.78;;;6.60;99.90;;;;;;4946807;29;20051;-68
2022/10/12 02:56:45;;;;;;;11.00;6.38;;;6.60;99.90;;;;;;4946344;29;20054;-68
2022/10/12 02:59:15;;;;;;;15.07;6.80;;;6.60;99.90;;;;;;4945983;29;20046;-69
2022/10/12 03:01:41;;;;;;;14.57;6.85;;;6.80;99.90;;;;;;4929549;29;20093;-69
2022/10/12 03:04:06;;;;;;;13.90;6.70;;;6.60;99.90;;;;;;4945964;29;20051;-68
2022/10/12 03:06:32;;;;;;;12.45;6.93;;;6.60;99.90;;;;;;4928803;29;20087;-68
2022/10/12 03:08:58;;;;;;;12.88;7.03;;;6.80;99.90;;;;;;4911765;29;20122;-69
2022/10/12 03:11:24;;;;;;;12.60;6.90;;;6.90;99.90;;;;;;4925933;29;20067;-67
2022/10/12 03:13:56;;;;;;;13.48;6.72;;;7.00;99.90;;;;;;4927071;29;20050;-68
2022/10/12 03:16:23;;;;;;;15.43;6.47;;;6.90;99.90;;;;;;4926615;29;20075;-69
2022/10/12 03:18:49;;;;;;;16.88;6.43;;;6.90;99.90;;;;;;4926648;29;20054;-68
2022/10/12 03:21:15;;;;;;;11.65;6.30;;;7.00;99.90;;;;;;4926419;29;20494;-68
2022/10/12 03:23:41;;;;;;;12.25;6.30;;;7.10;99.90;;;;;;4927154;29;20411;-69
2022/10/12 03:26:07;;;;;;;11.82;6.25;;;7.10;99.90;;;;;;4927211;29;20043;-68
2022/10/12 03:28:33;;;;;;;13.48;6.47;;;7.20;99.90;;;;;;4925426;29;20084;-69
2022/10/12 03:30:58;;;;;;;11.05;6.03;;;7.10;99.90;;;;;;4910563;29;20060;-69
2022/10/12 03:33:24;;;;;;;10.98;5.97;;;7.10;99.90;;;;;;4927227;29;20054;-67
2022/10/12 03:35:50;;;;;;;11.90;6.15;;;6.90;99.90;;;;;;4927262;29;20054;-69
2022/10/12 03:38:17;;;;;;;11.52;6.40;;;7.20;99.90;;;;;;4908867;29;20051;-67
2022/10/12 03:40:43;;;;;;;10.75;5.97;;;6.80;99.90;;;;;;4926836;29;20096;-69
2022/10/12 03:43:09;;;;;;;12.63;6.30;;;6.80;99.90;;;;;;4926358;29;20052;-68
2022/10/12 03:45:35;;;;;;;7.82;5.50;;;6.80;99.90;;;;;;4926249;29;20407;-69
2022/10/12 03:48:01;;;;;;;10.73;5.80;;;6.80;99.90;;;;;;4926807;29;20052;-68
2022/10/12 03:50:27;;;;;;;11.88;6.78;;;6.90;99.90;;;;;;4926165;29;20044;-68
2022/10/12 03:52:53;;;;;;;11.50;6.78;;;6.90;99.90;;;;;;4926659;29;20051;-69
2022/10/12 03:55:19;;;;;;;9.52;6.88;;;6.70;99.90;;;;;;4908795;29;20503;-68
2022/10/12 03:57:44;;;;;;;13.88;7.55;;;7.20;99.90;;;;;;4926301;29;20047;-68
2022/10/12 04:00:12;;;;;;;13.85;7.80;;;6.80;99.90;;;;;;4909566;29;20055;-68
2022/10/12 04:02:38;;;;;;;15.95;7.50;;;6.70;99.90;;;;;;4925662;29;20782;-68
2022/10/12 04:05:04;;;;;;;15.90;8.25;;;7.00;99.90;;;;;;4926222;29;20628;-69
2022/10/12 04:07:30;;;;;;;14.07;8.48;;;6.70;99.90;;;;;;4926426;29;20078;-67
2022/10/12 04:09:56;;;;;;;13.70;8.48;;;6.60;99.90;;;;;;4908964;29;20117;-68
2022/10/12 04:12:21;;;;;;;17.73;9.32;;;6.70;99.90;;;;;;4925101;29;20554;-68
2022/10/12 04:14:47;;;;;;;19.17;9.73;;;6.70;99.90;;;;;;4925743;29;20050;-68
2022/10/12 04:17:15;;;;;;;14.02;8.48;;;6.70;99.90;;;;;;4925839;29;20051;-68
2022/10/12 04:19:41;;;;;;;17.55;9.60;;;6.70;99.90;;;;;;4925299;29;20652;-69
2022/10/12 04:22:06;;;;;;;15.90;9.95;;;6.70;99.90;;;;;;4925206;29;20066;-68
2022/10/12 04:24:32;;;;;;;16.35;10.32;;;6.70;99.90;;;;;;4909197;29;20111;-69
2022/10/12 04:26:58;;;;;;;14.30;9.95;;;7.10;99.90;;;;;;4926024;29;20672;-68
2022/10/12 04:29:23;;;;;;;17.92;10.05;;;6.60;99.90;;;;;;4924265;29;20407;-69
2022/10/12 04:31:49;;;;;;;17.23;9.95;;;6.80;99.90;;;;;;4925994;29;20459;-68
2022/10/12 04:34:15;;;;;;;18.35;10.60;;;6.70;99.90;;;;;;4926022;29;20044;-69
2022/10/12 04:36:40;;;;;;;17.60;10.98;;;6.90;99.90;;;;;;4926393;29;20044;-68
2022/10/12 04:39:06;;;;;;;18.60;10.80;;;6.70;99.90;;;;;;4893277;29;20102;-69
2022/10/12 04:41:32;;;;;;;18.60;11.10;;;6.70;99.90;;;;;;4926339;29;20131;-68
2022/10/12 04:43:58;;;;;;;21.25;12.20;;;6.70;99.90;;;;;;4925279;29;20052;-67
2022/10/12 04:46:23;;;;;;;19.83;11.63;;;6.70;99.90;;;;;;4907518;29;20052;-68
2022/10/12 04:48:49;;;;;;;17.33;11.52;;;6.80;99.90;;;;;;4926242;29;20043;-69
2022/10/12 04:51:15;;;;;;;16.92;10.70;;;6.70;99.90;;;;;;4908602;29;20043;-67
2022/10/12 04:53:40;;;;;;;18.20;11.95;;;6.70;99.90;;;;;;4925997;29;20090;-68
2022/10/12 04:56:06;;;;;;;20.73;11.32;;;6.80;99.90;;;;;;4924192;29;20071;-68
2022/10/12 04:58:32;;;;;;;18.70;11.90;;;6.70;99.90;;;;;;4925403;29;20048;-69
2022/10/12 05:00:58;;;;;;;17.92;11.57;;;6.70;99.90;;;;;;4926449;29;20099;-68
2022/10/12 05:03:24;;;;;;;19.75;12.13;;;6.80;99.90;;;;;;4925405;29;20052;-69
2022/10/12 05:05:50;;;;;;;17.60;12.52;;;6.80;99.90;;;;;;4925380;29;20052;-68
2022/10/12 05:08:16;;;;;;;22.52;11.73;;;6.80;99.90;;;;;;4893191;29;20103;-68
2022/10/12 05:10:41;;;;;;;17.88;11.80;;;6.60;99.90;;;;;;4925961;29;20850;-67
2022/10/12 05:13:07;;;;;;;16.73;11.40;;;6.60;99.90;;;;;;4924204;29;20134;-69
2022/10/12 05:15:33;;;;;;;21.60;11.35;;;6.70;99.90;;;;;;4925929;29;20036;-67
2022/10/12 05:17:59;;;;;;;20.00;11.90;;;6.70;99.90;;;;;;4908997;29;20131;-68
2022/10/12 05:20:24;;;;;;;17.83;11.55;;;6.60;99.90;;;;;;4925457;29;20044;-69
2022/10/12 05:22:50;;;;;;;22.38;11.60;;;6.70;99.90;;;;;;4925385;29;20044;-68
2022/10/12 05:25:16;;;;;;;18.08;11.68;;;6.50;99.90;;;;;;4925815;29;20535;-68
2022/10/12 05:27:41;;;;;;;18.67;11.35;;;6.50;99.90;;;;;;4925072;29;20471;-68
2022/10/12 05:30:08;;;;;;;19.48;10.95;;;6.70;99.90;;;;;;4924725;29;20870;-68
2022/10/12 05:32:33;;;;;;;17.42;11.27;;;6.70;99.90;;;;;;4926266;29;20052;-69
2022/10/12 05:34:59;;;;;;;16.52;11.10;;;6.60;99.90;;;;;;4925909;29;20050;-68
2022/10/12 05:37:25;;;;;;;19.20;11.70;;;6.60;99.90;;;;;;4926035;29;20047;-69
2022/10/12 05:39:51;;;;;;;17.60;11.68;;;6.50;99.90;;;;;;4925268;29;20047;-67
2022/10/12 05:42:17;;;;;;;21.15;11.05;;;6.60;99.90;;;;;;4924686;29;20044;-68
2022/10/12 05:44:42;;;;;;;19.90;11.48;;;6.50;99.90;;;;;;4925815;29;20066;-68
2022/10/12 05:47:08;;;;;;;21.42;11.73;;;6.50;99.90;;;;;;4925077;29;20039;-68
2022/10/12 05:49:34;;;;;;;17.30;11.10;;;7.20;99.90;;;;;;4925936;29;20048;-69
2022/10/12 05:52:00;;;;;;;24.17;11.15;;;6.50;99.90;;;;;;4926235;29;20383;-67
2022/10/12 05:54:26;;;;;;;18.95;10.90;;;6.60;99.90;;;;;;4924820;29;20469;-68
2022/10/12 05:56:52;;;;;;;19.88;11.27;;;6.80;99.90;;;;;;4926476;29;20054;-68
2022/10/12 05:59:17;;;;;;;19.80;10.90;;;6.50;99.90;;;;;;4928329;29;20549;-68
2022/10/12 06:01:43;;;;;;;17.55;10.68;;;6.40;99.90;;;;;;4929605;29;20561;-68
2022/10/12 06:04:09;;;;;;;18.55;10.88;;;6.80;99.90;;;;;;4927335;29;20055;-67
2022/10/12 06:06:35;;;;;;;19.63;10.40;;;6.40;99.90;;;;;;4928249;29;20047;-68
2022/10/12 06:09:01;;;;;;;16.90;10.52;;;6.30;99.90;;;;;;4912439;29;20047;-68
2022/10/12 06:11:27;;;;;;;20.67;10.25;;;6.40;99.90;;;;;;4929195;29;20072;-67
2022/10/12 06:13:53;;;;;;;16.13;10.00;;;6.60;99.90;;;;;;4927817;29;20058;-68
2022/10/12 06:16:19;;;;;;;15.30;9.98;;;6.30;99.90;;;;;;4928712;29;20058;-68
2022/10/12 06:18:45;;;;;;;14.60;10.55;;;6.40;99.90;;;;;;4929144;29;20039;-67
2022/10/12 06:21:10;;;;;;;16.50;10.38;;;6.40;99.90;;;;;;4911209;29;20525;-69
2022/10/12 06:23:36;;;;;;;21.05;11.00;;;6.40;99.90;;;;;;4928055;29;20071;-68
2022/10/12 06:26:02;;;;;;;18.50;11.07;;;6.40;99.90;;;;;;4928686;29;20043;-68
2022/10/12 06:28:27;;;;;;;24.50;11.60;;;6.90;99.90;;;;;;4928220;29;20609;-69
2022/10/12 06:30:58;;;;;;;19.08;12.10;;;6.50;99.90;;;;;;4911020;29;20056;-69
2022/10/12 06:33:26;;;;;;;20.85;11.15;;;6.50;99.90;;;;;;4928825;29;20075;-67
2022/10/12 06:35:51;;;;;;;23.00;11.18;;;6.50;99.90;;;;;;4911245;29;20054;-69
2022/10/12 06:38:17;;;;;;;20.85;11.10;;;6.50;99.90;;;;;;4928697;29;20486;-67
2022/10/12 06:40:43;;;;;;;18.33;11.15;;;6.40;99.90;;;;;;4927847;29;20079;-69
2022/10/12 06:43:09;;;;;;;17.98;10.20;;;6.50;99.90;;;;;;4927307;29;20139;-69
2022/10/12 06:45:35;;;;;;;19.45;11.07;;;6.80;99.90;;;;;;4928645;29;20039;-68
2022/10/12 06:48:01;;;;;;;17.30;10.25;;;6.50;99.90;;;;;;4911203;29;20142;-69
2022/10/12 06:50:26;;;;;;;19.45;10.10;;;6.50;99.90;;;;;;4928657;29;20277;-70
2022/10/12 06:52:53;;;;;;;15.55;10.13;;;6.50;99.90;;;;;;4928207;29;20054;-66
2022/10/12 06:55:19;;;;;;;18.38;10.05;;;6.60;99.90;;;;;;4927767;29;20040;-68
2022/10/12 06:57:44;;;;;;;16.45;9.80;;;6.50;99.90;;;;;;4927126;29;20102;-67
2022/10/12 07:00:12;;;;;;;17.33;10.13;;;6.60;99.90;;;;;;4927845;29;20046;-67
2022/10/12 07:02:38;;;;;;;17.63;9.80;;;6.30;99.90;;;;;;4911071;29;20114;-67
2022/10/12 07:05:04;;;;;;;17.48;9.73;;;6.60;99.90;;;;;;4926794;29;20106;-68
2022/10/12 07:07:31;;;;;;;14.65;9.32;;;6.60;99.90;;;;;;4927723;29;20051;-68
2022/10/12 07:09:57;;;;;;;17.10;9.63;;;6.80;99.90;;;;;;4927658;29;20043;-67
2022/10/12 07:12:22;;;;;;;18.65;9.65;;;6.80;99.90;;;;;;4929404;29;20056;-69
2022/10/12 07:14:48;;;;;;;17.27;8.82;;;6.80;99.90;;;;;;4940709;29;20139;-69
2022/10/12 07:17:14;;;;;;;17.58;8.93;;;6.90;99.90;;;;;;4927674;29;20189;-69
2022/10/12 07:19:39;;;;;;;16.02;8.27;;;7.20;99.90;;;;;;4927740;29;20044;-70
2022/10/12 07:22:05;;;;;;;17.35;8.07;;;7.00;99.90;;;;;;4926829;29;20063;-68
2022/10/12 07:24:37;;;;;;;15.10;8.13;;;7.10;99.90;;;;;;4928359;29;20055;-70
2022/10/12 07:27:03;;;;;;;15.02;8.27;;;7.20;99.90;;;;;;4926668;29;20048;-71
2022/10/12 07:29:30;;;;;;;16.83;8.50;;;7.20;99.90;;;;;;4928139;29;20052;-70
2022/10/12 07:31:57;;;;;;;15.43;8.35;;;7.30;99.90;;;;;;4927499;29;20123;-68
2022/10/12 07:34:27;;;;;;;15.75;8.38;;;7.20;99.90;;;;;;4925222;29;20057;-70
2022/10/12 07:36:53;;;;;;;14.30;8.45;;;7.40;99.90;;;;;;4927232;29;20046;-69
2022/10/12 07:39:21;;;;;;;18.60;8.77;;;7.50;99.90;;;;;;4909447;29;20130;-68
2022/10/12 07:41:46;;;;;;;18.40;8.60;;;7.50;99.90;;;;;;4927849;29;20048;-70
2022/10/12 07:44:12;;;;;;;13.07;7.95;;;7.50;99.90;;;;;;4926827;29;20494;-69
2022/10/12 07:46:38;;;;;;;14.18;7.60;;;7.70;99.90;;;;;;4927438;29;20103;-68
2022/10/12 07:49:04;;;;;;;13.93;7.72;;;7.80;99.90;;;;;;4926680;29;20662;-70
2022/10/12 07:51:30;;;;;;;14.93;8.18;;;7.90;99.90;;;;;;4927374;29;20042;-68
2022/10/12 07:53:55;;;;;;;14.35;7.75;;;8.10;99.90;;;;;;4927060;29;20043;-68
2022/10/12 07:56:21;;;;;;;15.70;6.93;;;8.10;99.90;;;;;;4907370;29;20056;-67
2022/10/12 07:58:53;;;;;;;14.82;6.38;;;8.30;99.90;;;;;;4914287;29;20043;-69
2022/10/12 08:01:21;;;;;;;14.38;7.30;;;8.40;99.90;;;;;;4928691;29;20051;-69
2022/10/12 08:03:47;;;;;;;15.90;7.45;;;8.50;99.90;;;;;;4926176;29;20087;-70
2022/10/12 08:06:15;;;;;;;14.90;7.10;;;8.70;99.90;;;;;;4925782;29;20086;-68
2022/10/12 08:08:42;;;;;;;14.82;6.75;;;8.90;99.90;;;;;;4927428;29;20047;-70
2022/10/12 08:11:08;;;;;;;13.77;6.78;;;9.00;99.90;;;;;;4929083;29;20052;-69
2022/10/12 08:13:34;;;;;;;14.18;6.43;;;9.20;99.90;;;;;;4925878;29;20052;-68
2022/10/12 08:16:02;;;;;;;13.93;6.10;;;9.30;99.90;;;;;;4927637;29;20059;-68
2022/10/12 08:18:27;;;;;;;13.55;6.25;;;9.20;99.90;;;;;;4926606;29;20110;-70
2022/10/12 08:20:53;;;;;;;14.73;6.70;;;9.40;99.90;;;;;;4925934;29;20391;-67
2022/10/12 08:23:19;;;;;;;15.60;6.38;;;9.50;99.90;;;;;;4926777;29;20062;-69
2022/10/12 08:25:54;;;;;;;12.52;6.15;;;9.60;99.90;;;;;;4925259;29;20044;-69
2022/10/12 08:28:20;;;;;;;16.25;6.90;;;9.60;99.90;;;;;;4925026;29;20282;-67
2022/10/12 08:30:46;;;;;;;17.55;7.85;;;9.70;99.90;;;;;;4927133;29;20047;-69
2022/10/12 08:33:14;;;;;;;14.90;7.45;;;9.70;99.90;;;;;;4926286;29;20360;-68
2022/10/12 08:35:41;;;;;;;16.10;6.90;;;9.90;99.90;;;;;;4926515;29;20442;-68
2022/10/12 08:38:10;;;;;;;15.82;7.13;;;9.80;99.90;;;;;;4925862;29;20119;-71
2022/10/12 08:41:01;;;;;;;13.32;6.40;;;9.90;99.90;;;;;;4909637;29;20122;-70
2022/10/12 08:43:46;;;;;;;15.98;6.75;;;9.90;99.90;;;;;;4885602;29;20078;-72
2022/10/12 08:46:11;;;;;;;14.27;6.40;;;9.90;99.90;;;;;;4928744;29;20132;-71
2022/10/12 08:48:49;;;;;;;12.65;7.25;;;10.00;99.90;;;;;;4925886;29;20245;-68
2022/10/12 08:51:19;;;;;;;17.25;6.63;;;10.00;99.90;;;;;;4930332;29;20407;-69
2022/10/12 08:53:44;;;;;;;13.45;6.88;;;10.10;99.90;;;;;;4945526;29;20069;-67
2022/10/12 08:56:10;;;;;;;14.15;6.63;;;10.00;99.90;;;;;;4944054;29;20047;-68
2022/10/12 08:58:38;;;;;;;14.32;6.65;;;10.10;99.90;;;;;;4944900;29;20050;-68
2022/10/12 09:01:24;;;;;;;13.43;6.18;;;10.30;99.90;;;;;;4944659;29;20114;-68
2022/10/12 09:04:22;;;;;;;15.02;6.50;;;10.70;99.90;;;;;;4944468;29;20051;-68
2022/10/12 09:06:56;;;;;;;16.08;7.10;;;11.20;99.90;;;;;;4907708;29;20055;-68
2022/10/12 09:09:49;;;;;;;11.43;5.87;;;11.60;99.90;;;;;;4925462;29;20051;-68
2022/10/12 09:12:32;;;;;;;14.18;6.18;;;11.70;99.90;;;;;;4906942;29;20347;-68
2022/10/12 09:15:02;;;;;;;12.02;6.07;;;12.20;99.90;;;;;;4926241;29;20122;-68
2022/10/12 09:17:40;;;;;;;15.02;5.72;;;12.10;99.90;;;;;;4925465;29;20056;-68
2022/10/12 09:20:24;;;;;;;14.75;5.60;;;12.30;99.90;;;;;;4908835;29;20517;-68
2022/10/12 09:22:55;;;;;;;16.33;5.85;;;12.20;99.90;;;;;;4908071;29;20048;-68
2022/10/12 09:25:26;;;;;;;11.27;5.22;;;12.40;99.90;;;;;;4925479;29;20039;-67
2022/10/12 09:27:54;;;;;;;13.60;5.40;;;12.50;99.90;;;;;;4925020;29;20459;-68
2022/10/12 09:30:20;;;;;;;13.00;4.80;;;12.70;99.90;;;;;;4926102;29;20043;-68
2022/10/12 09:33:33;;;;;;;12.25;4.70;;;13.40;99.90;;;;;;4913109;29;20127;-68
2022/10/12 09:35:59;;;;;;;13.07;4.30;;;13.50;99.90;;;;;;4900408;29;20094;-68
2022/10/12 09:38:25;;;;;;;14.27;4.38;;;13.50;99.90;;;;;;4912681;29;20092;-68
2022/10/12 09:40:50;;;;;;;11.25;4.35;;;13.30;99.90;;;;;;4929988;29;20055;-68
2022/10/12 09:43:17;;;;;;;10.77;3.97;;;13.00;99.90;;;;;;4910893;29;20044;-68
2022/10/12 09:45:42;;;;;;;9.95;4.28;;;12.90;99.90;;;;;;4929946;29;20047;-67
2022/10/12 09:48:21;;;;;;;12.98;4.28;;;12.80;99.90;;;;;;4911924;29;20048;-68
2022/10/12 09:50:56;;;;;;;12.20;4.05;;;12.70;99.90;;;;;;4929204;29;20043;-68
2022/10/12 09:53:39;;;;;;;10.30;4.57;;;12.70;99.90;;;;;;4928475;29;20086;-68
2022/10/12 09:56:21;;;;;;;10.20;3.78;;;12.70;99.90;;;;;;4910782;29;20107;-68
2022/10/12 09:59:01;;;;;;;10.65;3.95;;;12.60;99.90;;;;;;4928534;29;20051;-65
2022/10/12 10:01:32;;;;;;;15.82;4.18;;;12.70;99.90;;;;;;4928923;29;20059;-65
2022/10/12 10:04:16;;;;;;;9.32;3.85;;;12.80;99.90;;;;;;4929695;29;20816;-65
2022/10/12 10:06:45;;;;;;;9.27;3.22;;;12.80;99.90;;;;;;4910912;29;20135;-65
2022/10/12 10:09:29;;;;;;;9.75;3.33;;;12.80;99.90;;;;;;4929267;29;20127;-66
2022/10/12 10:12:25;;;;;;;13.88;4.00;;;12.90;99.90;;;;;;4927632;29;20059;-65
2022/10/12 10:14:52;;;;;;;10.05;3.95;;;13.10;99.90;;;;;;4911458;29;20594;-65
2022/10/12 10:17:33;;;;;;;10.80;3.60;;;13.20;99.90;;;;;;4927758;29;20055;-65
2022/10/12 10:20:04;;;;;;;10.95;3.47;;;13.10;99.90;;;;;;4929029;29;20081;-66
2022/10/12 10:22:30;;;;;;;8.57;3.10;;;13.20;99.90;;;;;;4910880;29;20048;-66
2022/10/12 10:24:58;;;;;;;10.88;3.53;;;13.40;99.90;;;;;;4928199;29;20062;-65
2022/10/12 10:27:36;;;;;;;7.60;3.50;;;13.50;99.90;;;;;;4927316;29;20439;-68
2022/10/12 10:30:14;;;;;;;13.38;3.67;;;13.80;99.90;;;;;;4926888;29;20075;-69
2022/10/12 10:32:40;;;;;;;7.65;3.03;;;14.00;99.90;;;;;;4928316;29;20262;-68
2022/10/12 10:35:24;;;;;;;10.02;3.30;;;14.40;99.90;;;;;;4927063;29;20167;-68
2022/10/12 10:38:14;;;;;;;10.27;4.00;;;14.60;99.90;;;;;;4927945;29;20091;-68
2022/10/12 10:41:03;;;;;;;15.80;3.20;;;14.70;99.90;;;;;;4929176;29;20062;-68
2022/10/12 10:43:48;;;;;;;15.10;3.65;;;14.70;99.90;;;;;;4928405;29;20059;-68
2022/10/12 10:46:36;;;;;;;9.85;3.35;;;15.00;99.90;;;;;;4928596;29;20199;-67
2022/10/12 10:49:06;;;;;;;8.05;2.65;;;15.00;99.90;;;;;;4936548;29;20051;-69
2022/10/12 10:51:50;;;;;;;11.65;3.03;;;15.00;99.90;;;;;;4934337;29;20201;-67
2022/10/12 10:54:22;;;;;;;11.73;3.00;;;15.30;99.90;;;;;;4910863;29;20142;-66
2022/10/12 10:56:55;;;;;;;8.48;2.30;;;14.90;99.90;;;;;;4926868;29;20048;-66
2022/10/12 10:59:47;;;;;;;9.50;2.65;;;15.10;99.90;;;;;;4927225;29;20540;-66
2022/10/12 11:02:38;;;;;;;9.27;2.08;;;15.10;99.90;;;;;;4927291;29;20043;-66
2022/10/12 11:05:11;;;;;;;9.05;2.30;;;15.10;99.90;;;;;;4910612;29;20471;-65
2022/10/12 11:07:43;;;;;;;10.93;3.00;;;15.20;99.90;;;;;;4927769;29;20044;-65
2022/10/12 11:10:31;;;;;;;8.93;2.78;;;15.50;99.90;;;;;;4910221;29;20134;-65
2022/10/12 11:13:18;;;;;;;8.18;2.28;;;16.00;99.90;;;;;;4935082;29;20135;-65
2022/10/12 11:16:00;;;;;;;7.75;2.33;;;16.00;99.90;;;;;;4937587;29;20051;-66
2022/10/12 11:18:53;;;;;;;9.93;2.08;;;15.90;99.90;;;;;;4937151;29;20095;-67
2022/10/12 11:21:36;;;;;;;7.22;2.03;;;15.70;99.90;;;;;;4917575;29;20047;-67
2022/10/12 11:24:17;;;;;;;8.38;2.35;;;15.70;99.90;;;;;;4917539;29;20072;-68
2022/10/12 11:26:51;;;;;;;8.55;2.00;;;15.50;99.90;;;;;;4927789;29;20095;-67
2022/10/12 11:29:17;;;;;;;10.15;2.00;;;15.80;99.90;;;;;;4910844;29;20465;-67
2022/10/12 11:31:48;;;;;;;9.23;2.10;;;15.90;99.90;;;;;;4927777;29;20090;-67
2022/10/12 11:34:17;;;;;;;5.53;1.63;;;16.10;99.90;;;;;;4926553;29;20048;-67
2022/10/12 11:36:46;;;;;;;8.52;1.90;;;16.10;99.90;;;;;;4927501;29;20047;-67
2022/10/12 11:39:33;;;;;;;8.60;1.80;;;16.00;99.90;;;;;;4927102;29;20411;-67
2022/10/12 11:42:02;;;;;;;6.35;1.50;;;16.10;99.90;;;;;;4910049;29;20123;-64
2022/10/12 11:44:42;;;;;;;7.50;1.80;;;15.80;99.90;;;;;;4927560;29;20094;-67
2022/10/12 11:47:30;;;;;;;8.20;1.80;;;15.80;99.90;;;;;;4925545;29;20123;-67
2022/10/12 11:50:05;;;;;;;6.13;1.65;;;16.00;99.90;;;;;;4910680;29;20040;-66
2022/10/12 11:52:41;;;;;;;5.05;1.30;;;16.20;99.90;;;;;;4928075;29;20502;-60
2022/10/12 11:55:34;;;;;;;8.50;1.80;;;15.80;99.90;;;;;;4925897;29;20059;-67
2022/10/12 11:58:06;;;;;;;8.50;1.95;;;15.70;99.90;;;;;;4927013;29;20059;-64
2022/10/12 12:01:13;;;;;;;5.45;1.58;;;15.80;99.90;;;;;;4926260;29;20054;-68
2022/10/12 12:04:01;;;;;;;9.57;1.90;;;15.60;99.90;;;;;;4886436;29;20116;-67
2022/10/12 12:06:30;;;;;;;7.88;1.92;;;15.80;99.90;;;;;;4910890;29;20690;-67
2022/10/12 12:08:56;;;;;;;5.70;1.92;;;15.60;99.90;;;;;;4908025;29;20048;-67
2022/10/12 12:11:27;;;;;;;6.95;1.65;;;15.80;99.90;;;;;;4889824;29;20468;-67
2022/10/12 12:14:24;;;;;;;5.65;1.60;;;15.70;99.90;;;;;;4907287;29;20147;-67
2022/10/12 12:17:10;;;;;;;7.10;1.98;;;15.30;99.90;;;;;;4906971;29;20047;-67
2022/10/12 12:19:38;;;;;;;7.82;1.70;;;15.70;99.90;;;;;;4907521;29;20134;-67
2022/10/12 12:22:33;;;;;;;6.38;1.83;;;15.60;99.90;;;;;;4889760;29;20055;-68
2022/10/12 12:25:04;;;;;;;7.87;1.60;;;15.50;99.90;;;;;;4891631;29;20048;-67
2022/10/12 12:27:38;;;;;;;7.80;1.80;;;15.50;99.90;;;;;;4905389;29;20048;-67
2022/10/12 12:30:19;;;;;;;9.65;2.60;;;15.80;99.90;;;;;;4907520;29;20040;-68
2022/10/12 12:32:51;;;;;;;8.13;1.60;;;15.80;99.90;;;;;;4906914;29;20059;-67
2022/10/12 12:35:36;;;;;;;5.25;1.50;;;15.70;99.90;;;;;;4907234;29;20452;-67
2022/10/12 12:38:11;;;;;;;7.40;2.28;;;15.50;99.90;;;;;;4906853;29;20558;-67
2022/10/12 12:40:37;;;;;;;;;;;15.50;99.90;;;;;;4907850;29;20052;-67
2022/10/12 12:43:28;;;;;;;6.60;2.15;;;15.40;99.90;;;;;;4906601;29;19981;-67
2022/10/12 12:46:07;;;;;;;10.82;2.10;;;15.50;99.90;;;;;;4907611;29;20373;-67
2022/10/12 12:48:38;;;;;;;8.32;2.28;;;15.50;99.90;;;;;;4907659;29;20044;-68
2022/10/12 12:51:09;;;;;;;5.55;1.73;;;15.40;99.90;;;;;;4907007;29;20191;-67
2022/10/12 12:54:03;;;;;;;6.32;1.98;;;15.50;99.90;;;;;;4890761;29;20150;-65
2022/10/12 12:56:50;;;;;;;11.25;2.40;;;15.60;99.90;;;;;;4906598;29;20048;-67
2022/10/12 12:59:46;;;;;;;7.85;1.77;;;15.60;99.90;;;;;;4907051;29;20492;-62
2022/10/12 13:02:33;;;;;;;8.52;2.38;;;15.50;99.90;;;;;;4905590;29;20048;-66
2022/10/12 13:05:19;;;;;;;9.25;1.70;;;15.50;99.90;;;;;;4911978;29;20059;-67